ESOK 161220Z 35006KT CAVOK 12/03 Q1005